Time;durP1;ratioP1;P1;durP2;ratioP2;P2;SDS_P1;SDS_P2;PMS_P1;PMS_P2;Temp;Humidity;BMP_temperature;BMP_pressure;BME280_temperature;BME280_humidity;BME280_pressure;Samples;Min_cycle;Max_cycle;Signal;HPM_P1;HPM_P2
2022/10/24 00:00:58;;;;;;;;;;;;;;;26.87;31.01;101377.81;4980414;28;1157;-31
2022/10/24 00:03:24;;;;;;;;;;;;;;;26.87;31.08;101374.28;4980204;28;1177;-30
2022/10/24 00:05:49;;;;;;;;;;;;;;;26.92;30.84;101371.06;4979895;28;1963;-30
2022/10/24 00:08:15;;;;;;;;;;;;;;;26.87;30.71;101358.06;4983738;28;1161;-30
2022/10/24 00:10:41;;;;;;;;;;;;;;;26.83;31.06;101349.47;4979971;28;2749;-31
2022/10/24 00:13:06;;;;;;;;;;;;;;;26.82;31.07;101352.31;4979909;28;1141;-31
2022/10/24 00:15:32;;;;;;;;;;;;;;;26.83;31.09;101349.47;4980023;28;1130;-31
2022/10/24 00:17:57;;;;;;;;;;;;;;;26.82;30.90;101342.38;4980170;28;1149;-31
2022/10/24 00:20:22;;;;;;;;;;;;;;;26.82;31.05;101350.47;4984956;28;1224;-31
2022/10/24 00:22:48;;;;;;;;;;;;;;;26.86;31.05;101362.63;4980593;28;1188;-30
2022/10/24 00:25:13;;;;;;;;;;;;;;;26.81;31.45;101356.88;4980022;28;1181;-30
2022/10/24 00:27:38;;;;;;;;;;;;;;;26.76;31.38;101348.41;4979669;28;1981;-31
2022/10/24 00:30:04;;;;;;;;;;;;;;;26.76;31.35;101351.97;4979860;28;1184;-31
2022/10/24 00:32:29;;;;;;;;;;;;;;;26.75;31.47;101344.91;4984582;28;1172;-31
2022/10/24 00:34:54;;;;;;;;;;;;;;;26.79;31.38;101348.13;4979386;28;1149;-31
2022/10/24 00:37:19;;;;;;;;;;;;;;;26.75;31.80;101349.44;4979756;28;1169;-31
2022/10/24 00:39:45;;;;;;;;;;;;;;;26.76;31.44;101356.53;4980136;28;1887;-31
2022/10/24 00:42:10;;;;;;;;;;;;;;;26.76;31.49;101351.13;4979594;28;1126;-31
2022/10/24 00:44:36;;;;;;;;;;;;;;;26.75;31.29;101349.44;4965438;28;1169;-31
2022/10/24 00:47:02;;;;;;;;;;;;;;;26.76;31.26;101351.13;4967981;28;1977;-31
2022/10/24 00:49:29;;;;;;;;;;;;;;;26.76;31.19;101346.56;4979104;28;1184;-31
2022/10/24 00:51:56;;;;;;;;;;;;;;;26.76;31.58;101345.72;4978040;28;1126;-31
2022/10/24 00:54:21;;;;;;;;;;;;;;;26.73;31.69;101349.63;4979800;28;1050;-31
2022/10/24 00:56:52;;;;;;;;;;;;;;;26.75;31.58;101349.44;4981062;28;1138;-31
2022/10/24 00:59:18;;;;;;;;;;;;;;;26.75;31.92;101353.00;4961850;28;1300;-29
2022/10/24 01:01:43;;;;;;;;;;;;;;;26.72;31.50;101352.47;4961702;28;1138;-31
2022/10/24 01:04:10;;;;;;;;;;;;;;;26.71;31.90;101348.94;4961726;28;1130;-31
2022/10/24 01:06:54;;;;;;;;;;;;;;;26.74;32.15;101356.69;4978744;28;1953;-31
2022/10/24 01:09:19;;;;;;;;;;;;;;;26.67;32.33;101361.06;4978848;28;2478;-31
2022/10/24 01:11:53;;;;;;;;;;;;;;;26.76;32.02;101359.22;4978900;28;1149;-31
2022/10/24 01:14:27;;;;;;;;;;;;;;;26.74;31.64;101361.25;4978885;28;1153;-31
2022/10/24 01:16:59;;;;;;;;;;;;;;;26.69;32.07;101358.22;4962132;28;1130;-31
2022/10/24 01:19:33;;;;;;;;;;;;;;;26.67;31.92;101354.81;4961483;28;1046;-31
2022/10/24 01:22:00;;;;;;;;;;;;;;;26.69;31.90;101355.50;4981050;28;1194;-31
2022/10/24 01:24:32;;;;;;;;;;;;;;;26.65;31.56;101358.53;4961722;28;1217;-31
2022/10/24 01:27:15;;;;;;;;;;;;;;;26.61;31.51;101357.16;4978771;28;1954;-31
2022/10/24 01:30:03;;;;;;;;;;;;;;;26.66;31.33;101359.38;4978576;28;1122;-31
2022/10/24 01:32:35;;;;;;;;;;;;;;;26.66;31.26;101353.97;4962263;28;1209;-31
2022/10/24 01:35:00;;;;;;;;;;;;;;;26.68;31.05;101351.09;4978856;28;1125;-31
2022/10/24 01:37:25;;;;;;;;;;;;;;;26.67;31.04;101352.13;4978498;28;1126;-31
2022/10/24 01:39:51;;;;;;;;;;;;;;;26.70;30.92;101349.09;4978714;28;2547;-31
2022/10/24 01:42:18;;;;;;;;;;;;;;;26.71;30.69;101348.09;4960983;28;1114;-31
2022/10/24 01:44:44;;;;;;;;;;;;;;;26.69;31.22;101350.97;4964004;28;1166;-31
2022/10/24 01:47:19;;;;;;;;;;;;;;;26.75;32.08;101346.75;4988519;28;1890;-31
2022/10/24 01:49:46;;;;;;;;;;;;;;;26.65;33.35;101347.75;4960827;28;1311;-31
2022/10/24 01:52:12;;;;;;;;;;;;;;;26.65;33.45;101357.69;4961293;28;1181;-31
2022/10/24 01:54:38;;;;;;;;;;;;;;;26.67;34.06;101352.97;4960567;28;1114;-31
2022/10/24 01:57:04;;;;;;;;;;;;;;;26.67;34.62;101352.97;4965517;28;1110;-31
2022/10/24 01:59:29;;;;;;;;;;;;;;;26.69;34.41;101361.75;4984811;28;1173;-31
2022/10/24 02:01:57;;;;;;;;;;;;;;;26.70;34.45;101358.03;4978541;28;1162;-31
2022/10/24 02:04:22;;;;;;;;;;;;;;;26.70;34.75;101354.50;4977766;28;1141;-31
2022/10/24 02:06:47;;;;;;;;;;;;;;;26.67;34.54;101355.69;4960755;28;1899;-31
2022/10/24 02:09:14;;;;;;;;;;;;;;;26.67;34.52;101357.53;4963081;28;2412;-30
2022/10/24 02:11:39;;;;;;;;;;;;;;;26.65;34.33;101355.00;4977612;28;1121;-31
2022/10/24 02:14:09;;;;;;;;;;;;;;;26.67;34.58;101360.22;4991529;28;1034;-31
2022/10/24 02:16:34;;;;;;;;;;;;;;;26.66;34.43;101370.16;4960385;28;1153;-31
2022/10/24 02:19:00;;;;;;;;;;;;;;;26.65;34.31;101368.50;4977826;28;1122;-31
2022/10/24 02:21:34;;;;;;;;;;;;;;;26.67;34.13;101358.38;4983650;28;1150;-31
2022/10/24 02:24:00;;;;;;;;;;;;;;;26.64;34.00;101362.22;4982749;28;1154;-30
2022/10/24 02:26:30;;;;;;;;;;;;;;;26.61;33.71;101367.16;4977510;28;1899;-31
2022/10/24 02:28:57;;;;;;;;;;;;;;;26.64;33.45;101366.81;4977703;28;1133;-31
2022/10/24 02:31:22;;;;;;;;;;;;;;;26.67;33.52;101361.06;4959962;28;1154;-31
2022/10/24 02:33:48;;;;;;;;;;;;;;;26.69;33.52;101367.16;4968402;28;1083;-31
2022/10/24 02:36:15;;;;;;;;;;;;;;;26.67;33.34;101362.91;4962958;28;1142;-31
2022/10/24 02:38:41;;;;;;;;;;;;;;;26.64;33.34;101356.84;4977561;28;1449;-30
2022/10/24 02:41:18;;;;;;;;;;;;;;;26.63;33.16;101354.31;4977679;28;2612;-30
2022/10/24 02:43:43;;;;;;;;;;;;;;;26.53;33.12;101347.22;4960381;28;1165;-30
2022/10/24 02:46:09;;;;;;;;;;;;;;;26.62;33.46;101361.59;4969758;28;1879;-31
2022/10/24 02:48:35;;;;;;;;;;;;;;;26.60;33.05;101369.00;4977443;28;1122;-31
2022/10/24 02:51:00;;;;;;;;;;;;;;;26.62;33.09;101374.22;4960165;28;1118;-31
2022/10/24 02:53:25;;;;;;;;;;;;;;;26.61;33.06;101370.66;4977353;28;1165;-31
2022/10/24 02:55:51;;;;;;;;;;;;;;;26.64;33.02;101381.13;4960681;28;1166;-30
2022/10/24 02:58:16;;;;;;;;;;;;;;;26.67;32.98;101379.13;4985069;28;1184;-29
2022/10/24 03:00:41;;;;;;;;;;;;;;;26.66;32.85;101375.56;4977479;28;1117;-29
2022/10/24 03:03:07;;;;;;;;;;;;;;;26.67;33.03;101379.97;4977569;28;1117;-29
2022/10/24 03:05:32;;;;;;;;;;;;;;;26.64;32.70;101372.22;4976949;28;1231;-30
2022/10/24 03:07:57;;;;;;;;;;;;;;;26.64;32.76;101373.03;4976938;28;1910;-30
2022/10/24 03:10:23;;;;;;;;;;;;;;;26.67;32.81;101369.19;4983011;28;2309;-30
2022/10/24 03:12:48;;;;;;;;;;;;;;;26.66;32.54;101367.47;4976962;28;1129;-30
2022/10/24 03:15:13;;;;;;;;;;;;;;;26.67;32.51;101361.06;4978649;28;1121;-30
2022/10/24 03:17:39;;;;;;;;;;;;;;;26.67;32.71;101366.47;4981347;28;1165;-30
2022/10/24 03:20:04;;;;;;;;;;;;;;;26.67;32.91;101363.78;4980721;28;1153;-30
2022/10/24 03:22:29;;;;;;;;;;;;;;;26.69;32.20;101363.59;4989724;28;1275;-30
2022/10/24 03:24:55;;;;;;;;;;;;;;;26.77;32.34;101367.19;4980791;28;1153;-30
2022/10/24 03:27:20;;;;;;;;;;;;;;;26.78;31.68;101365.31;4980720;28;1972;-31
2022/10/24 03:29:45;;;;;;;;;;;;;;;26.83;32.28;101362.09;4980906;28;1130;-31
2022/10/24 03:32:11;;;;;;;;;;;;;;;26.88;32.84;101357.91;4981489;28;1180;-31
2022/10/24 03:34:36;;;;;;;;;;;;;;;26.74;33.35;101359.38;4987822;28;1121;-31
2022/10/24 03:37:01;;;;;;;;;;;;;;;26.72;33.33;101360.56;4980566;28;1506;-32
2022/10/24 03:39:27;;;;;;;;;;;;;;;26.76;33.29;101351.13;4980599;28;1880;-31
2022/10/24 03:41:52;;;;;;;;;;;;;;;26.70;33.48;101347.25;4980861;28;1189;-31
2022/10/24 03:44:17;;;;;;;;;;;;;;;26.73;33.08;101349.63;4980450;28;1086;-31
2022/10/24 03:46:42;;;;;;;;;;;;;;;26.31;30.04;101348.63;4985913;28;1890;-32
2022/10/24 03:49:08;;;;;;;;;;;;;;;25.56;29.94;101346.34;4980638;28;1114;-32
2022/10/24 03:51:33;;;;;;;;;;;;;;;24.61;29.49;101352.22;4980116;28;1074;-32
2022/10/24 03:53:58;;;;;;;;;;;;;;;24.58;30.68;101359.59;4980552;28;1181;-32
2022/10/24 03:56:23;;;;;;;;;;;;;;;25.13;30.38;101356.97;4980340;28;1086;-32
2022/10/24 03:58:49;;;;;;;;;;;;;;;25.29;29.07;101358.13;4984213;28;901;-32
2022/10/24 04:01:16;;;;;;;;;;;;;;;24.88;29.55;101358.53;4980132;28;1082;-31
2022/10/24 04:03:43;;;;;;;;;;;;;;;24.89;29.43;101353.00;4980150;28;1208;-31
2022/10/24 04:06:08;;;;;;;;;;;;;;;25.09;29.43;101352.88;4980213;28;1902;-31
2022/10/24 04:08:33;;;;;;;;;;;;;;;25.13;29.49;101348.88;4980299;28;1189;-31
2022/10/24 04:10:58;;;;;;;;;;;;;;;25.24;30.21;101346.97;4979796;28;2216;-32
2022/10/24 04:13:24;;;;;;;;;;;;;;;25.28;29.79;101351.03;4980114;28;1184;-31
2022/10/24 04:15:49;;;;;;;;;;;;;;;25.31;30.03;101348.88;4979776;28;1153;-31
2022/10/24 04:18:14;;;;;;;;;;;;;;;25.25;29.68;101337.88;4979817;28;1125;-31
2022/10/24 04:20:39;;;;;;;;;;;;;;;25.25;29.13;101337.88;4979858;28;1125;-30
2022/10/24 04:23:05;;;;;;;;;;;;;;;25.09;29.00;101328.66;4984678;28;1230;-31
2022/10/24 04:25:30;;;;;;;;;;;;;;;25.05;28.85;101329.97;4979537;28;1114;-30
2022/10/24 04:27:55;;;;;;;;;;;;;;;25.05;28.96;101330.84;4979408;28;1918;-30
2022/10/24 04:30:21;;;;;;;;;;;;;;;25.06;29.10;101329.81;4979730;28;1228;-31
2022/10/24 04:32:46;;;;;;;;;;;;;;;25.08;29.58;101329.66;4979350;28;1243;-30
2022/10/24 04:35:12;;;;;;;;;;;;;;;25.06;29.64;101334.34;4982764;28;862;-31
2022/10/24 04:37:38;;;;;;;;;;;;;;;25.01;29.39;101334.81;4979639;28;1118;-31
2022/10/24 04:40:03;;;;;;;;;;;;;;;24.99;29.64;101344.88;4982143;28;2687;-32
2022/10/24 04:42:28;;;;;;;;;;;;;;;25.02;29.72;101349.13;4979813;28;1138;-30
2022/10/24 04:44:54;;;;;;;;;;;;;;;25.08;29.92;101348.50;4979080;28;1094;-30
2022/10/24 04:47:19;;;;;;;;;;;;;;;25.07;29.84;101350.34;4981130;28;1898;-31
2022/10/24 04:49:44;;;;;;;;;;;;;;;25.03;30.16;101351.66;4979366;28;1180;-31
2022/10/24 04:52:09;;;;;;;;;;;;;;;25.03;30.04;101354.34;4979487;28;1125;-30
2022/10/24 04:54:35;;;;;;;;;;;;;;;25.05;29.67;101359.59;4979171;28;1130;-30
2022/10/24 04:57:00;;;;;;;;;;;;;;;25.03;30.14;101359.75;4979436;28;1106;-30
2022/10/24 04:59:25;;;;;;;;;;;;;;;25.02;30.02;101360.75;4980072;28;901;-30
2022/10/24 05:01:53;;;;;;;;;;;;;;;25.03;29.62;101364.28;4979110;28;1145;-30
2022/10/24 05:04:18;;;;;;;;;;;;;;;25.01;29.96;101372.50;4979013;28;1122;-32
2022/10/24 05:06:43;;;;;;;;;;;;;;;25.03;30.37;101375.88;4979101;28;1981;-30
2022/10/24 05:09:09;;;;;;;;;;;;;;;25.13;30.47;101373.13;4978720;28;2349;-23
2022/10/24 05:11:34;;;;;;;;;;;;;;;25.35;30.70;101380.88;4982030;28;1164;-24
2022/10/24 05:13:59;;;;;;;;;;;;;;;25.51;31.17;101378.31;4978990;28;1141;-24
2022/10/24 05:16:24;;;;;;;;;;;;;;;25.51;30.87;101381.00;4979033;28;1125;-24
2022/10/24 05:18:50;;;;;;;;;;;;;;;25.40;31.06;101368.63;4978553;28;1145;-25
2022/10/24 05:21:15;;;;;;;;;;;;;;;25.55;30.95;101376.16;4978972;28;1185;-23
2022/10/24 05:23:40;;;;;;;;;;;;;;;25.52;31.52;101371.06;4979914;28;1112;-23
2022/10/24 05:26:06;;;;;;;;;;;;;;;25.70;31.51;101364.81;4978702;28;1974;-23
2022/10/24 05:28:31;;;;;;;;;;;;;;;25.73;30.59;101364.50;4979089;28;1141;-24
2022/10/24 05:30:56;;;;;;;;;;;;;;;25.73;30.72;101364.50;4978461;28;1189;-25
2022/10/24 05:33:22;;;;;;;;;;;;;;;25.74;30.68;101369.72;4978786;28;1094;-25
2022/10/24 05:35:48;;;;;;;;;;;;;;;25.76;30.83;101375.81;4991651;28;1232;-25
2022/10/24 05:38:13;;;;;;;;;;;;;;;25.90;30.80;101378.94;4978209;28;1200;-25
2022/10/24 05:40:39;;;;;;;;;;;;;;;25.77;30.53;101377.53;4978166;28;2525;-25
2022/10/24 05:43:04;;;;;;;;;;;;;;;25.94;30.69;101380.31;4978508;28;1161;-24
2022/10/24 05:45:29;;;;;;;;;;;;;;;25.96;31.21;101377.47;4978537;28;1200;-23
2022/10/24 05:47:54;;;;;;;;;;;;;;;26.04;31.34;101385.59;4989865;28;1977;-25
2022/10/24 05:50:20;;;;;;;;;;;;;;;26.15;30.96;101388.00;4978409;28;1181;-25
2022/10/24 05:52:46;;;;;;;;;;;;;;;26.05;30.74;101395.34;4978404;28;1149;-24
2022/10/24 05:55:11;;;;;;;;;;;;;;;26.15;31.02;101404.19;4978127;28;1117;-24
2022/10/24 05:57:36;;;;;;;;;;;;;;;26.18;31.24;101411.09;4977982;28;1180;-25
2022/10/24 06:00:03;;;;;;;;;;;;;;;26.49;30.90;101415.97;4988596;28;1215;-24
2022/10/24 06:02:28;;;;;;;;;;;;;;;26.29;31.09;101418.06;4978400;28;1082;-24
2022/10/24 06:04:55;;;;;;;;;;;;;;;26.30;31.39;101408.97;4977799;28;1169;-25
2022/10/24 06:07:21;;;;;;;;;;;;;;;26.31;31.47;101413.34;4977872;28;1902;-23
2022/10/24 06:09:46;;;;;;;;;;;;;;;26.33;31.13;101411.38;4977268;28;1836;-24
2022/10/24 06:12:11;;;;;;;;;;;;;;;26.32;31.29;101415.06;4990671;28;1265;-24
2022/10/24 06:14:37;;;;;;;;;;;;;;;26.41;31.49;101427.59;4977904;28;1126;-23
2022/10/24 06:17:04;;;;;;;;;;;;;;;26.43;30.91;101427.44;4978024;28;1161;-24
2022/10/24 06:19:29;;;;;;;;;;;;;;;26.33;31.40;101429.41;4977974;28;1173;-24
2022/10/24 06:21:55;;;;;;;;;;;;;;;26.42;31.19;101423.06;4960543;28;1197;-25
2022/10/24 06:24:20;;;;;;;;;;;;;;;26.50;31.19;101433.88;4988900;28;1094;-24
2022/10/24 06:26:45;;;;;;;;;;;;;;;26.65;30.97;101428.72;4977647;28;1914;-24
2022/10/24 06:29:10;;;;;;;;;;;;;;;26.64;31.17;101426.19;4977525;28;1142;-24
2022/10/24 06:31:37;;;;;;;;;;;;;;;26.68;31.33;101426.66;4977615;28;1141;-25
2022/10/24 06:34:02;;;;;;;;;;;;;;;26.64;31.41;101429.69;4977730;28;1086;-25
2022/10/24 06:36:27;;;;;;;;;;;;;;;26.69;31.36;101440.03;4987096;28;1134;-25
2022/10/24 06:38:53;;;;;;;;;;;;;;;26.73;31.58;101440.53;4977250;28;1085;-25
2022/10/24 06:41:18;;;;;;;;;;;;;;;26.74;31.21;101434.13;4977707;28;2714;-24
2022/10/24 06:43:43;;;;;;;;;;;;;;;26.85;31.10;101435.66;4977636;28;1125;-24
2022/10/24 06:46:09;;;;;;;;;;;;;;;26.95;31.01;101432.81;4977529;28;1967;-25
2022/10/24 06:48:35;;;;;;;;;;;;;;;27.02;31.07;101434.75;4985511;28;905;-24
2022/10/24 06:51:00;;;;;;;;;;;;;;;27.01;31.04;101440.25;4977496;28;1106;-24
2022/10/24 06:53:25;;;;;;;;;;;;;;;27.08;30.99;101429.66;4977109;28;1196;-24
2022/10/24 06:55:50;;;;;;;;;;;;;;;27.02;30.94;101428.50;4976951;28;1121;-25
2022/10/24 06:58:16;;;;;;;;;;;;;;;27.00;31.42;101425.06;4977266;28;1133;-24
2022/10/24 07:00:41;;;;;;;;;;;;;;;26.96;31.21;101419.16;4983672;28;912;-24
2022/10/24 07:03:06;;;;;;;;;;;;;;;26.99;31.15;101426.91;4976941;28;1122;-24
2022/10/24 07:05:32;;;;;;;;;;;;;;;26.96;31.26;101426.44;4977234;28;1129;-24
2022/10/24 07:07:57;;;;;;;;;;;;;;;26.98;31.18;101424.38;4977015;28;1907;-25
2022/10/24 07:10:22;;;;;;;;;;;;;;;27.06;31.40;101429.84;4976879;28;1939;-24
2022/10/24 07:12:48;;;;;;;;;;;;;;;27.14;31.10;101427.16;4968684;28;1108;-24
2022/10/24 07:15:13;;;;;;;;;;;;;;;27.14;31.20;101419.03;4977098;28;1117;-24
2022/10/24 07:17:39;;;;;;;;;;;;;;;27.17;31.00;101430.53;4977095;28;1074;-24
2022/10/24 07:20:04;;;;;;;;;;;;;;;27.20;31.35;101436.44;4977204;28;1153;-25
2022/10/24 07:22:30;;;;;;;;;;;;;;;27.19;31.19;101429.38;4959215;28;1435;-24
2022/10/24 07:24:55;;;;;;;;;;;;;;;27.23;31.28;101427.16;4984795;28;975;-24
2022/10/24 07:27:21;;;;;;;;;;;;;;;27.30;31.05;101424.63;4977072;28;1977;-25
2022/10/24 07:29:46;;;;;;;;;;;;;;;27.27;31.14;101428.53;4976834;28;1165;-26
2022/10/24 07:32:11;;;;;;;;;;;;;;;27.28;31.01;101429.38;4977102;28;1157;-25
2022/10/24 07:34:37;;;;;;;;;;;;;;;27.23;31.42;101430.72;4977217;28;1063;-25
2022/10/24 07:37:03;;;;;;;;;;;;;;;27.23;31.58;101429.84;4983122;28;922;-25
2022/10/24 07:39:28;;;;;;;;;;;;;;;27.26;31.29;101421.41;4979195;28;1955;-25
2022/10/24 07:41:53;;;;;;;;;;;;;;;27.29;31.43;101425.66;4976764;28;1130;-25
2022/10/24 07:44:19;;;;;;;;;;;;;;;27.32;31.13;101425.31;4976789;28;1192;-25
2022/10/24 07:46:44;;;;;;;;;;;;;;;27.30;31.09;101422.78;4976824;28;1883;-25
2022/10/24 07:49:09;;;;;;;;;;;;;;;27.35;31.19;101422.28;4981400;28;1074;-26
2022/10/24 07:51:35;;;;;;;;;;;;;;;27.41;31.18;101427.00;4976987;28;1054;-26
2022/10/24 07:54:00;;;;;;;;;;;;;;;27.78;30.86;101424.81;4976559;28;1113;-26
2022/10/24 07:56:25;;;;;;;;;;;;;;;27.57;30.91;101423.47;4977007;28;1148;-25
2022/10/24 07:58:50;;;;;;;;;;;;;;;27.54;30.99;101423.81;4976672;28;1177;-25
2022/10/24 08:01:20;;;;;;;;;;;;;;;27.60;31.25;101423.13;4981014;28;860;-26
2022/10/24 08:03:45;;;;;;;;;;;;;;;27.67;30.67;101427.84;4980376;28;1129;-25
2022/10/24 08:06:12;;;;;;;;;;;;;;;27.68;30.86;101426.81;4980366;28;1894;-24
2022/10/24 08:08:37;;;;;;;;;;;;;;;28.05;30.78;101422.75;4980131;28;1079;-25
2022/10/24 08:11:12;;;;;;;;;;;;;;;28.07;30.42;101422.56;4980291;28;2554;-24
2022/10/24 08:13:37;;;;;;;;;;;;;;;27.96;30.51;101424.63;4985222;28;943;-25
2022/10/24 08:16:10;;;;;;;;;;;;;;;27.95;30.56;101422.09;4980543;28;1212;-24
2022/10/24 08:18:35;;;;;;;;;;;;;;;27.83;30.51;101410.78;4979957;28;1106;-24
2022/10/24 08:21:02;;;;;;;;;;;;;;;27.88;30.72;101405.72;4980223;28;1173;-25
2022/10/24 08:23:27;;;;;;;;;;;;;;;27.90;30.53;101400.97;4962645;28;1134;-25
2022/10/24 08:25:53;;;;;;;;;;;;;;;27.96;30.51;101394.03;4986449;28;1906;-26
2022/10/24 08:28:18;;;;;;;;;;;;;;;27.97;30.64;101399.28;4980226;28;1150;-25
2022/10/24 08:30:43;;;;;;;;;;;;;;;27.99;30.71;101391.81;4979426;28;1117;-25
2022/10/24 08:33:09;;;;;;;;;;;;;;;28.01;30.73;101396.22;4979888;28;1158;-25
2022/10/24 08:35:34;;;;;;;;;;;;;;;28.08;30.66;101391.78;4979791;28;1086;-25
2022/10/24 08:38:00;;;;;;;;;;;;;;;28.06;30.61;101386.56;4984534;28;1173;-25
2022/10/24 08:40:26;;;;;;;;;;;;;;;28.05;30.53;101392.13;4962245;28;2521;-25
2022/10/24 08:42:51;;;;;;;;;;;;;;;28.11;30.63;101394.16;4979888;28;1141;-25
2022/10/24 08:45:36;;;;;;;;;;;;;;;28.14;30.35;101388.41;4979481;28;1125;-25
2022/10/24 08:48:06;;;;;;;;;;;;;;;28.17;30.48;101392.63;4981985;28;1911;-25
2022/10/24 08:50:32;;;;;;;;;;;;;;;28.15;30.79;101389.22;4948544;28;1115;-25
2022/10/24 08:53:16;;;;;;;;;;;;;;;28.19;30.42;101385.19;4979676;28;1078;-26
2022/10/24 08:55:44;;;;;;;;;;;;;;;28.19;30.73;101388.72;4966264;28;1276;-25
2022/10/24 08:58:13;;;;;;;;;;;;;;;28.20;30.49;101392.25;4979530;28;1181;-25
2022/10/24 09:00:42;;;;;;;;;;;;;;;28.29;30.47;101393.94;4963436;28;976;-25
2022/10/24 09:03:21;;;;;;;;;;;;;;;28.33;30.26;101389.03;4979099;28;1089;-26
2022/10/24 09:05:50;;;;;;;;;;;;;;;28.32;30.39;101390.88;4979136;28;1172;-25
2022/10/24 09:08:31;;;;;;;;;;;;;;;28.43;30.29;101391.50;4962201;28;1208;-25
2022/10/24 09:10:58;;;;;;;;;;;;;;;28.41;30.18;101391.69;4975964;28;2453;-25
2022/10/24 09:13:24;;;;;;;;;;;;;;;28.42;30.28;101390.69;4960641;28;875;-25
2022/10/24 09:15:50;;;;;;;;;;;;;;;28.44;30.08;101385.94;4978418;28;1193;-26
2022/10/24 09:18:19;;;;;;;;;;;;;;;28.46;30.39;101381.19;4979432;28;1212;-24
2022/10/24 09:20:45;;;;;;;;;;;;;;;28.62;30.00;101374.00;4961264;28;1197;-26
2022/10/24 09:23:10;;;;;;;;;;;;;;;28.34;29.33;101371.78;4948673;28;2412;-25
2022/10/24 09:25:35;;;;;;;;;;;;;;;28.42;28.22;101373.59;4968016;28;1099;-26
2022/10/24 09:28:01;;;;;;;;;;;;;;;28.32;26.93;101374.63;4960735;28;2288;-26
2022/10/24 09:30:27;;;;;;;;;;;;;;;28.22;28.17;101365.88;4961890;28;1427;-27
2022/10/24 09:32:53;;;;;;;;;;;;;;;28.11;28.69;101361.72;4978890;28;1247;-27
2022/10/24 09:35:28;;;;;;;;;;;;;;;28.22;28.37;101355.91;4978327;28;1223;-27
2022/10/24 09:37:54;;;;;;;;;;;;;;;28.22;27.63;101355.06;4959698;28;1244;-27
2022/10/24 09:40:26;;;;;;;;;;;;;;;28.47;27.07;101353.13;4978616;28;1173;-28
2022/10/24 09:42:55;;;;;;;;;;;;;;;28.35;26.48;101358.09;4960421;28;1118;-27
2022/10/24 09:45:26;;;;;;;;;;;;;;;28.20;26.71;101351.69;4978350;28;1149;-27
2022/10/24 09:47:59;;;;;;;;;;;;;;;28.23;26.20;101352.19;4978565;28;1902;-28
2022/10/24 09:50:24;;;;;;;;;;;;;;;28.13;26.31;101343.44;4988714;28;990;-29
2022/10/24 09:52:49;;;;;;;;;;;;;;;28.06;25.96;101335.16;4961612;28;1178;-28
2022/10/24 09:55:19;;;;;;;;;;;;;;;28.03;26.12;101338.22;4978199;28;1208;-27
2022/10/24 09:57:44;;;;;;;;;;;;;;;28.72;25.97;101347.56;4978341;28;1173;-30
2022/10/24 10:00:24;;;;;;;;;;;;;;;27.54;27.41;101326.53;4976534;28;2468;-28
2022/10/24 10:02:56;;;;;;;;;;;;;;;22.51;35.38;101320.47;4975366;28;2103;-29
2022/10/24 10:05:21;;;;;;;;;;;;;;;20.87;37.50;101312.88;4982153;28;2129;-28
2022/10/24 10:07:47;;;;;;;;;;;;;;;20.55;41.78;101312.72;4989115;28;2139;-28
2022/10/24 10:10:24;;;;;;;;;;;;;;;20.90;44.04;101307.28;4964754;28;1996;-28
2022/10/24 10:12:57;;;;;;;;;;;;;;;20.95;44.28;101306.91;4976272;28;2274;-28
2022/10/24 10:15:36;;;;;;;;;;;;;;;21.02;44.03;101305.44;4990325;28;2201;-28
2022/10/24 10:18:20;;;;;;;;;;;;;;;20.88;44.28;101299.38;4965543;28;1090;-29
2022/10/24 10:20:46;;;;;;;;;;;;;;;19.95;46.58;101307.66;4977673;28;1550;-28
2022/10/24 10:23:24;;;;;;;;;;;;;;;19.68;47.32;101296.34;4960024;28;1544;-28
2022/10/24 10:26:00;;;;;;;;;;;;;;;19.44;48.18;101310.59;4979170;28;935;-27
2022/10/24 10:28:25;;;;;;;;;;;;;;;19.28;48.81;101299.41;4960199;28;1134;-28
2022/10/24 10:30:54;;;;;;;;;;;;;;;19.17;49.19;101295.72;4977812;28;1141;-27
2022/10/24 10:33:28;;;;;;;;;;;;;;;21.96;42.51;101298.44;4960082;28;1103;-30
2022/10/24 10:36:10;;;;;;;;;;;;;;;20.55;44.81;101295.84;4960713;28;1296;-28
2022/10/24 10:38:42;;;;;;;;;;;;;;;19.86;48.10;101300.34;4960457;28;909;-27
2022/10/24 10:41:10;;;;;;;;;;;;;;;22.92;40.04;101306.16;4977347;28;1173;-28
2022/10/24 10:43:39;;;;;;;;;;;;;;;19.47;48.21;101301.50;4977416;28;1303;-28
2022/10/24 10:46:07;;;;;;;;;;;;;;;21.32;44.25;101294.97;4977017;28;2505;-28
2022/10/24 10:48:41;;;;;;;;;;;;;;;21.39;42.43;101290.75;4977007;28;1142;-28
2022/10/24 10:51:12;;;;;;;;;;;;;;;19.18;50.26;101289.44;4966447;28;1110;-28
2022/10/24 10:53:46;;;;;;;;;;;;;;;22.40;41.52;101281.22;4960061;28;1248;-30
2022/10/24 10:56:15;;;;;;;;;;;;;;;19.89;47.45;101276.94;4977437;28;1070;-28
2022/10/24 10:58:40;;;;;;;;;;;;;;;18.94;50.28;101271.63;4977278;28;1165;-27
2022/10/24 11:01:18;;;;;;;;;;;;;;;21.73;43.25;101270.94;4980509;28;1208;-28
2022/10/24 11:03:49;;;;;;;;;;;;;;;20.09;46.37;101276.34;4965187;28;1220;-27
2022/10/24 11:06:26;;;;;;;;;;;;;;;21.31;44.22;101270.00;4977213;28;1969;-27
2022/10/24 11:09:10;;;;;;;;;;;;;;;23.57;38.76;101275.97;4977475;28;1241;-27
2022/10/24 11:11:36;;;;;;;;;;;;;;;24.39;36.54;101268.28;4977591;28;1162;-28
2022/10/24 11:14:14;;;;;;;;;;;;;;;24.68;35.76;101275.28;4984829;28;1099;-28
2022/10/24 11:16:39;;;;;;;;;;;;;;;24.80;35.63;101276.75;4977119;28;2519;-28
2022/10/24 11:19:08;;;;;;;;;;;;;;;25.04;35.16;101272.59;4959501;28;1114;-27
2022/10/24 11:21:33;;;;;;;;;;;;;;;25.20;34.67;101268.34;4959502;28;1158;-27
2022/10/24 11:24:02;;;;;;;;;;;;;;;25.28;34.81;101267.53;4976653;28;1255;-28
2022/10/24 11:26:34;;;;;;;;;;;;;;;25.36;34.36;101270.28;4982871;28;1895;-27
2022/10/24 11:29:00;;;;;;;;;;;;;;;25.50;34.24;101268.88;4960373;28;1190;-28
2022/10/24 11:31:33;;;;;;;;;;;;;;;25.65;33.75;101266.47;4976918;28;1086;-28
2022/10/24 11:34:01;;;;;;;;;;;;;;;25.44;34.17;101264.97;4977081;28;1141;-28
2022/10/24 11:36:26;;;;;;;;;;;;;;;25.45;34.34;101268.50;4978658;28;1137;-28
2022/10/24 11:38:57;;;;;;;;;;;;;;;25.47;34.44;101261.13;4985470;28;856;-29
2022/10/24 11:41:41;;;;;;;;;;;;;;;25.53;34.79;101262.31;4963437;28;1256;-28
2022/10/24 11:44:12;;;;;;;;;;;;;;;25.59;34.28;101250.88;4987513;28;1059;-28
2022/10/24 11:46:39;;;;;;;;;;;;;;;25.61;34.38;101248.88;4981385;28;2336;-29
2022/10/24 11:49:31;;;;;;;;;;;;;;;25.65;34.24;101252.13;4980450;28;1117;-28
2022/10/24 11:51:58;;;;;;;;;;;;;;;25.72;34.22;101247.81;4965895;28;1089;-28
2022/10/24 11:54:23;;;;;;;;;;;;;;;25.75;34.35;101247.47;4963038;28;1181;-28
2022/10/24 11:57:02;;;;;;;;;;;;;;;25.77;34.31;101250.00;4980290;28;1208;-28
2022/10/24 11:59:29;;;;;;;;;;;;;;;25.84;34.19;101247.50;4963581;28;1170;-28
2022/10/24 12:01:54;;;;;;;;;;;;;;;25.90;33.98;101246.84;4981629;28;1141;-28
2022/10/24 12:04:20;;;;;;;;;;;;;;;25.90;34.17;101245.03;4980140;28;1145;-28
2022/10/24 12:07:04;;;;;;;;;;;;;;;25.95;33.94;101240.97;4980084;28;1895;-29
2022/10/24 12:09:43;;;;;;;;;;;;;;;25.98;34.11;101238.81;4991122;28;1014;-28
2022/10/24 12:12:23;;;;;;;;;;;;;;;25.98;33.99;101236.09;4963347;28;1229;-29
2022/10/24 12:14:51;;;;;;;;;;;;;;;25.99;33.92;101234.25;4966787;28;2444;-28
2022/10/24 12:17:28;;;;;;;;;;;;;;;25.99;33.95;101234.25;4962785;28;1070;-28
2022/10/24 12:19:53;;;;;;;;;;;;;;;26.07;33.71;101234.28;4979785;28;1193;-28
2022/10/24 12:22:25;;;;;;;;;;;;;;;26.12;33.89;101231.09;4962554;28;1295;-28
2022/10/24 12:25:00;;;;;;;;;;;;;;;26.12;33.72;101231.94;4963300;28;1142;-28
2022/10/24 12:27:28;;;;;;;;;;;;;;;26.12;33.78;101228.41;4982076;28;1974;-28
2022/10/24 12:30:09;;;;;;;;;;;;;;;26.15;34.19;101228.06;4979611;28;1185;-28
2022/10/24 12:33:00;;;;;;;;;;;;;;;26.12;34.29;101225.69;4979405;28;1113;-28
2022/10/24 12:35:26;;;;;;;;;;;;;;;26.16;34.23;101236.00;4977387;28;1242;-28
2022/10/24 12:37:51;;;;;;;;;;;;;;;26.23;33.90;101235.31;4980608;28;1210;-29
2022/10/24 12:40:35;;;;;;;;;;;;;;;26.21;33.73;101223.88;4979912;28;1122;-28
2022/10/24 12:43:00;;;;;;;;;;;;;;;26.14;33.94;101227.22;4979393;28;1204;-29
2022/10/24 12:45:30;;;;;;;;;;;;;;;26.14;34.01;101221.81;4979450;28;2267;-29
2022/10/24 12:47:55;;;;;;;;;;;;;;;26.16;34.22;101221.66;4979263;28;1898;-29
2022/10/24 12:50:20;;;;;;;;;;;;;;;26.13;34.01;101213.91;4986241;28;1153;-29